Almo Heights, Kentucky
Current Conditions -  °F | °C
As of 10:15 PM on Wednesday 22 Oct 2014 (Local Time) from KCEY Reporting Station
Clear Clear  
Wind Chill:   Ceiling: Unl
Heat Index:   Visibility: 10mi
Dew Point:   Wind: 0mph
Humidity: 81%   Direction: NA
Pressure: 30.22"   Gusts: NA
Location:  36.7139°N, 88.3196°W
Report Text: KCEY 230315Z AUTO 00000KT 10SM CLR 08/05 A3022 RMK AO1
Loading
Personal Weather Stations






























Interactive Weather Map
Tropical Storm Tracking
New forecast layout! Learn more

10-Day Weather Forecast

Advertisements
Track Severe Weather on mobile